sensor_id;sensor_type;location;lat;lon;timestamp;temperature;humidity
63013;DHT22;62113;45.624;11.700;2023-05-20T00:02:18;18.50;59.90
63013;DHT22;62113;45.624;11.700;2023-05-20T00:04:44;18.60;59.80
63013;DHT22;62113;45.624;11.700;2023-05-20T00:07:10;18.60;59.60
63013;DHT22;62113;45.624;11.700;2023-05-20T00:09:37;18.50;59.60
63013;DHT22;62113;45.624;11.700;2023-05-20T00:12:02;18.50;59.50
63013;DHT22;62113;45.624;11.700;2023-05-20T00:14:28;18.50;59.40
63013;DHT22;62113;45.624;11.700;2023-05-20T00:16:53;18.50;59.50
63013;DHT22;62113;45.624;11.700;2023-05-20T00:19:19;18.50;59.50
63013;DHT22;62113;45.624;11.700;2023-05-20T00:21:44;18.40;59.60
63013;DHT22;62113;45.624;11.700;2023-05-20T00:24:10;18.40;60.00
63013;DHT22;62113;45.624;11.700;2023-05-20T00:26:35;18.40;60.00
63013;DHT22;62113;45.624;11.700;2023-05-20T00:29:01;18.40;60.50
63013;DHT22;62113;45.624;11.700;2023-05-20T00:31:26;18.30;60.50
63013;DHT22;62113;45.624;11.700;2023-05-20T00:33:52;18.40;60.60
63013;DHT22;62113;45.624;11.700;2023-05-20T00:36:17;18.30;61.00
63013;DHT22;62113;45.624;11.700;2023-05-20T00:38:43;18.30;60.90
63013;DHT22;62113;45.624;11.700;2023-05-20T00:41:09;18.30;61.60
63013;DHT22;62113;45.624;11.700;2023-05-20T00:43:34;18.20;62.00
63013;DHT22;62113;45.624;11.700;2023-05-20T00:46:00;18.20;61.90
63013;DHT22;62113;45.624;11.700;2023-05-20T00:48:26;18.20;62.20
63013;DHT22;62113;45.624;11.700;2023-05-20T00:50:53;18.10;62.90
63013;DHT22;62113;45.624;11.700;2023-05-20T00:53:19;18.10;63.00
63013;DHT22;62113;45.624;11.700;2023-05-20T00:55:45;18.00;63.20
63013;DHT22;62113;45.624;11.700;2023-05-20T00:58:11;18.00;63.80
63013;DHT22;62113;45.624;11.700;2023-05-20T01:00:36;17.90;64.20
63013;DHT22;62113;45.624;11.700;2023-05-20T01:03:02;17.90;64.60
63013;DHT22;62113;45.624;11.700;2023-05-20T01:05:28;17.90;65.00
63013;DHT22;62113;45.624;11.700;2023-05-20T01:07:53;17.80;65.40
63013;DHT22;62113;45.624;11.700;2023-05-20T01:10:20;17.80;66.10
63013;DHT22;62113;45.624;11.700;2023-05-20T01:12:50;17.70;67.00
63013;DHT22;62113;45.624;11.700;2023-05-20T01:15:18;17.70;67.10
63013;DHT22;62113;45.624;11.700;2023-05-20T01:17:46;17.70;67.60
63013;DHT22;62113;45.624;11.700;2023-05-20T01:20:13;17.70;67.10
63013;DHT22;62113;45.624;11.700;2023-05-20T01:22:48;17.70;66.40
63013;DHT22;62113;45.624;11.700;2023-05-20T01:25:14;17.70;67.20
63013;DHT22;62113;45.624;11.700;2023-05-20T01:27:40;17.80;66.80
63013;DHT22;62113;45.624;11.700;2023-05-20T01:30:05;17.70;67.40
63013;DHT22;62113;45.624;11.700;2023-05-20T01:32:31;17.70;68.20
63013;DHT22;62113;45.624;11.700;2023-05-20T01:34:58;17.70;68.40
63013;DHT22;62113;45.624;11.700;2023-05-20T01:37:25;17.60;68.80
63013;DHT22;62113;45.624;11.700;2023-05-20T01:39:51;17.50;68.90
63013;DHT22;62113;45.624;11.700;2023-05-20T01:42:17;17.50;69.60
63013;DHT22;62113;45.624;11.700;2023-05-20T01:44:43;17.50;68.70
63013;DHT22;62113;45.624;11.700;2023-05-20T01:47:09;17.50;68.40
63013;DHT22;62113;45.624;11.700;2023-05-20T01:49:34;17.50;69.00
63013;DHT22;62113;45.624;11.700;2023-05-20T01:52:00;17.40;68.90
63013;DHT22;62113;45.624;11.700;2023-05-20T01:54:25;17.40;68.60
63013;DHT22;62113;45.624;11.700;2023-05-20T01:56:51;17.40;68.30
63013;DHT22;62113;45.624;11.700;2023-05-20T01:59:17;17.50;67.60
63013;DHT22;62113;45.624;11.700;2023-05-20T02:01:42;17.50;67.60
63013;DHT22;62113;45.624;11.700;2023-05-20T02:04:08;17.50;67.40
63013;DHT22;62113;45.624;11.700;2023-05-20T02:06:33;17.50;67.10
63013;DHT22;62113;45.624;11.700;2023-05-20T02:08:59;17.50;67.00
63013;DHT22;62113;45.624;11.700;2023-05-20T02:11:24;17.60;66.80
63013;DHT22;62113;45.624;11.700;2023-05-20T02:13:50;17.70;66.90
63013;DHT22;62113;45.624;11.700;2023-05-20T02:16:16;17.70;66.90
63013;DHT22;62113;45.624;11.700;2023-05-20T02:18:41;17.70;67.50
63013;DHT22;62113;45.624;11.700;2023-05-20T02:21:07;17.60;67.50
63013;DHT22;62113;45.624;11.700;2023-05-20T02:23:33;17.50;68.00
63013;DHT22;62113;45.624;11.700;2023-05-20T02:25:58;17.50;68.10
63013;DHT22;62113;45.624;11.700;2023-05-20T02:28:24;17.50;68.30
63013;DHT22;62113;45.624;11.700;2023-05-20T02:30:49;17.40;68.60
63013;DHT22;62113;45.624;11.700;2023-05-20T02:33:18;17.40;68.80
63013;DHT22;62113;45.624;11.700;2023-05-20T02:35:43;17.40;69.20
63013;DHT22;62113;45.624;11.700;2023-05-20T02:38:09;17.30;69.30
63013;DHT22;62113;45.624;11.700;2023-05-20T02:40:35;17.30;69.50
63013;DHT22;62113;45.624;11.700;2023-05-20T02:43:00;17.30;69.40
63013;DHT22;62113;45.624;11.700;2023-05-20T02:45:26;17.30;69.20
63013;DHT22;62113;45.624;11.700;2023-05-20T02:47:51;17.30;69.50
63013;DHT22;62113;45.624;11.700;2023-05-20T02:50:17;17.20;69.60
63013;DHT22;62113;45.624;11.700;2023-05-20T02:52:42;17.20;69.80
63013;DHT22;62113;45.624;11.700;2023-05-20T02:55:09;17.20;70.00
63013;DHT22;62113;45.624;11.700;2023-05-20T02:57:35;17.20;70.20
63013;DHT22;62113;45.624;11.700;2023-05-20T03:00:04;17.20;69.80
63013;DHT22;62113;45.624;11.700;2023-05-20T03:02:31;17.30;70.00
63013;DHT22;62113;45.624;11.700;2023-05-20T03:04:57;17.30;69.80
63013;DHT22;62113;45.624;11.700;2023-05-20T03:07:22;17.40;69.50
63013;DHT22;62113;45.624;11.700;2023-05-20T03:09:48;17.30;69.50
63013;DHT22;62113;45.624;11.700;2023-05-20T03:12:13;17.30;69.30
63013;DHT22;62113;45.624;11.700;2023-05-20T03:14:39;17.30;69.70
63013;DHT22;62113;45.624;11.700;2023-05-20T03:17:04;17.30;69.70
63013;DHT22;62113;45.624;11.700;2023-05-20T03:19:30;17.30;69.50
63013;DHT22;62113;45.624;11.700;2023-05-20T03:21:55;17.30;69.40
63013;DHT22;62113;45.624;11.700;2023-05-20T03:24:22;17.40;69.40
63013;DHT22;62113;45.624;11.700;2023-05-20T03:26:48;17.40;69.40
63013;DHT22;62113;45.624;11.700;2023-05-20T03:29:13;17.40;69.50
63013;DHT22;62113;45.624;11.700;2023-05-20T03:31:39;17.30;69.60
63013;DHT22;62113;45.624;11.700;2023-05-20T03:34:04;17.30;69.80
63013;DHT22;62113;45.624;11.700;2023-05-20T03:36:30;17.30;69.90
63013;DHT22;62113;45.624;11.700;2023-05-20T03:38:56;17.30;70.00
63013;DHT22;62113;45.624;11.700;2023-05-20T03:41:21;17.30;69.80
63013;DHT22;62113;45.624;11.700;2023-05-20T03:43:47;17.30;69.70
63013;DHT22;62113;45.624;11.700;2023-05-20T03:46:12;17.30;69.70
63013;DHT22;62113;45.624;11.700;2023-05-20T03:48:38;17.20;70.00
63013;DHT22;62113;45.624;11.700;2023-05-20T03:51:03;17.20;70.10
63013;DHT22;62113;45.624;11.700;2023-05-20T03:53:29;17.20;70.20
63013;DHT22;62113;45.624;11.700;2023-05-20T03:55:54;17.20;70.10
63013;DHT22;62113;45.624;11.700;2023-05-20T03:58:20;17.20;70.20
63013;DHT22;62113;45.624;11.700;2023-05-20T04:00:46;17.20;70.00
63013;DHT22;62113;45.624;11.700;2023-05-20T04:03:12;17.20;69.90
63013;DHT22;62113;45.624;11.700;2023-05-20T04:05:37;17.30;69.70
63013;DHT22;62113;45.624;11.700;2023-05-20T04:08:03;17.30;69.70
63013;DHT22;62113;45.624;11.700;2023-05-20T04:10:29;17.30;69.40
63013;DHT22;62113;45.624;11.700;2023-05-20T04:12:56;17.30;69.70
63013;DHT22;62113;45.624;11.700;2023-05-20T04:15:22;17.30;69.70
63013;DHT22;62113;45.624;11.700;2023-05-20T04:17:48;17.30;69.80
63013;DHT22;62113;45.624;11.700;2023-05-20T04:20:14;17.30;69.80
63013;DHT22;62113;45.624;11.700;2023-05-20T04:22:40;17.40;70.10
63013;DHT22;62113;45.624;11.700;2023-05-20T04:25:05;17.40;69.80
63013;DHT22;62113;45.624;11.700;2023-05-20T04:27:32;17.50;69.60
63013;DHT22;62113;45.624;11.700;2023-05-20T04:30:02;17.60;69.20
63013;DHT22;62113;45.624;11.700;2023-05-20T04:32:28;17.70;68.90
63013;DHT22;62113;45.624;11.700;2023-05-20T04:34:54;17.80;68.70
63013;DHT22;62113;45.624;11.700;2023-05-20T04:37:20;17.90;68.40
63013;DHT22;62113;45.624;11.700;2023-05-20T04:39:46;18.00;68.20
63013;DHT22;62113;45.624;11.700;2023-05-20T04:42:14;18.10;67.90
63013;DHT22;62113;45.624;11.700;2023-05-20T04:44:40;18.20;67.70
63013;DHT22;62113;45.624;11.700;2023-05-20T04:47:05;18.20;67.40
63013;DHT22;62113;45.624;11.700;2023-05-20T04:49:33;18.30;67.20
63013;DHT22;62113;45.624;11.700;2023-05-20T04:51:59;18.40;67.00
63013;DHT22;62113;45.624;11.700;2023-05-20T04:54:25;18.40;66.80
63013;DHT22;62113;45.624;11.700;2023-05-20T04:56:50;18.50;66.60
63013;DHT22;62113;45.624;11.700;2023-05-20T04:59:16;18.60;66.40
63013;DHT22;62113;45.624;11.700;2023-05-20T05:01:42;18.70;66.20
63013;DHT22;62113;45.624;11.700;2023-05-20T05:04:07;18.70;66.00
63013;DHT22;62113;45.624;11.700;2023-05-20T05:06:33;18.70;65.80
63013;DHT22;62113;45.624;11.700;2023-05-20T05:08:58;18.80;65.80
63013;DHT22;62113;45.624;11.700;2023-05-20T05:11:24;18.90;65.60
63013;DHT22;62113;45.624;11.700;2023-05-20T05:13:50;18.90;65.40
63013;DHT22;62113;45.624;11.700;2023-05-20T05:16:16;19.00;65.20
63013;DHT22;62113;45.624;11.700;2023-05-20T05:18:41;19.10;65.20
63013;DHT22;62113;45.624;11.700;2023-05-20T05:21:07;19.10;65.10
63013;DHT22;62113;45.624;11.700;2023-05-20T05:23:32;19.10;64.90
63013;DHT22;62113;45.624;11.700;2023-05-20T05:25:58;19.20;64.90
63013;DHT22;62113;45.624;11.700;2023-05-20T05:28:23;19.20;64.60
63013;DHT22;62113;45.624;11.700;2023-05-20T05:30:49;19.20;64.50
63013;DHT22;62113;45.624;11.700;2023-05-20T05:33:14;19.20;64.40
63013;DHT22;62113;45.624;11.700;2023-05-20T05:35:40;19.30;64.40
63013;DHT22;62113;45.624;11.700;2023-05-20T05:38:06;19.40;64.30
63013;DHT22;62113;45.624;11.700;2023-05-20T05:40:31;19.50;64.20
63013;DHT22;62113;45.624;11.700;2023-05-20T05:42:57;19.60;64.10
63013;DHT22;62113;45.624;11.700;2023-05-20T05:45:22;19.70;63.90
63013;DHT22;62113;45.624;11.700;2023-05-20T05:47:48;19.80;63.70
63013;DHT22;62113;45.624;11.700;2023-05-20T05:50:13;19.90;63.50
63013;DHT22;62113;45.624;11.700;2023-05-20T05:52:39;20.20;63.40
63013;DHT22;62113;45.624;11.700;2023-05-20T05:55:05;20.40;63.20
63013;DHT22;62113;45.624;11.700;2023-05-20T05:57:31;20.70;62.70
63013;DHT22;62113;45.624;11.700;2023-05-20T05:59:56;21.00;62.20
63013;DHT22;62113;45.624;11.700;2023-05-20T06:02:22;21.20;61.50
63013;DHT22;62113;45.624;11.700;2023-05-20T06:04:47;21.30;61.00
63013;DHT22;62113;45.624;11.700;2023-05-20T06:07:13;21.50;60.70
63013;DHT22;62113;45.624;11.700;2023-05-20T06:09:38;21.60;60.00
63013;DHT22;62113;45.624;11.700;2023-05-20T06:12:04;22.10;60.40
63013;DHT22;62113;45.624;11.700;2023-05-20T06:14:30;22.90;60.30
63013;DHT22;62113;45.624;11.700;2023-05-20T06:16:56;23.70;57.20
63013;DHT22;62113;45.624;11.700;2023-05-20T06:19:22;24.70;55.40
63013;DHT22;62113;45.624;11.700;2023-05-20T06:21:47;25.60;53.60
63013;DHT22;62113;45.624;11.700;2023-05-20T06:24:13;26.10;51.60
63013;DHT22;62113;45.624;11.700;2023-05-20T06:26:38;26.30;50.40
63013;DHT22;62113;45.624;11.700;2023-05-20T06:29:04;26.20;49.10
63013;DHT22;62113;45.624;11.700;2023-05-20T06:31:29;26.00;46.30
63013;DHT22;62113;45.624;11.700;2023-05-20T06:33:55;25.50;48.20
63013;DHT22;62113;45.624;11.700;2023-05-20T06:36:20;25.20;48.70
63013;DHT22;62113;45.624;11.700;2023-05-20T06:38:46;24.70;49.30
63013;DHT22;62113;45.624;11.700;2023-05-20T06:41:11;24.40;49.40
63013;DHT22;62113;45.624;11.700;2023-05-20T06:43:37;24.00;50.00
63013;DHT22;62113;45.624;11.700;2023-05-20T06:46:03;23.60;50.60
63013;DHT22;62113;45.624;11.700;2023-05-20T06:48:28;23.30;51.20
63013;DHT22;62113;45.624;11.700;2023-05-20T06:50:54;23.10;51.20
63013;DHT22;62113;45.624;11.700;2023-05-20T06:53:21;22.90;51.90
63013;DHT22;62113;45.624;11.700;2023-05-20T06:55:46;22.60;51.50
63013;DHT22;62113;45.624;11.700;2023-05-20T06:58:12;22.50;52.60
63013;DHT22;62113;45.624;11.700;2023-05-20T07:00:37;22.30;51.80
63013;DHT22;62113;45.624;11.700;2023-05-20T07:03:03;22.20;53.30
63013;DHT22;62113;45.624;11.700;2023-05-20T07:05:28;22.10;53.20
63013;DHT22;62113;45.624;11.700;2023-05-20T07:07:55;22.00;53.60
63013;DHT22;62113;45.624;11.700;2023-05-20T07:10:21;21.90;53.80
63013;DHT22;62113;45.624;11.700;2023-05-20T07:12:46;21.80;53.70
63013;DHT22;62113;45.624;11.700;2023-05-20T07:15:12;21.80;53.60
63013;DHT22;62113;45.624;11.700;2023-05-20T07:17:37;21.80;54.00
63013;DHT22;62113;45.624;11.700;2023-05-20T07:20:03;21.70;53.90
63013;DHT22;62113;45.624;11.700;2023-05-20T07:22:28;21.70;53.60
63013;DHT22;62113;45.624;11.700;2023-05-20T07:24:54;21.70;52.70
63013;DHT22;62113;45.624;11.700;2023-05-20T07:27:19;21.60;51.60
63013;DHT22;62113;45.624;11.700;2023-05-20T07:29:45;21.60;52.60
63013;DHT22;62113;45.624;11.700;2023-05-20T07:32:10;21.50;52.50
63013;DHT22;62113;45.624;11.700;2023-05-20T07:34:36;21.40;52.90
63013;DHT22;62113;45.624;11.700;2023-05-20T07:37:02;21.40;53.20
63013;DHT22;62113;45.624;11.700;2023-05-20T07:39:28;21.30;52.40
63013;DHT22;62113;45.624;11.700;2023-05-20T07:41:53;21.30;53.00
63013;DHT22;62113;45.624;11.700;2023-05-20T07:44:19;21.20;53.60
63013;DHT22;62113;45.624;11.700;2023-05-20T07:46:46;21.20;53.90
63013;DHT22;62113;45.624;11.700;2023-05-20T07:49:12;21.30;54.10
63013;DHT22;62113;45.624;11.700;2023-05-20T07:51:37;21.10;54.40
63013;DHT22;62113;45.624;11.700;2023-05-20T07:54:03;21.20;54.60
63013;DHT22;62113;45.624;11.700;2023-05-20T07:56:28;21.20;55.40
63013;DHT22;62113;45.624;11.700;2023-05-20T07:58:55;21.20;56.00
63013;DHT22;62113;45.624;11.700;2023-05-20T08:01:22;21.20;56.20
63013;DHT22;62113;45.624;11.700;2023-05-20T08:03:48;21.20;57.00
63013;DHT22;62113;45.624;11.700;2023-05-20T08:06:13;21.20;57.10
63013;DHT22;62113;45.624;11.700;2023-05-20T08:08:39;21.10;56.80
63013;DHT22;62113;45.624;11.700;2023-05-20T08:11:08;21.00;57.10
63013;DHT22;62113;45.624;11.700;2023-05-20T08:13:33;21.00;57.30
63013;DHT22;62113;45.624;11.700;2023-05-20T08:15:58;21.00;57.40
63013;DHT22;62113;45.624;11.700;2023-05-20T08:18:24;21.00;57.80
63013;DHT22;62113;45.624;11.700;2023-05-20T08:20:51;20.90;58.20
63013;DHT22;62113;45.624;11.700;2023-05-20T08:23:17;20.90;58.90
63013;DHT22;62113;45.624;11.700;2023-05-20T08:25:42;20.80;59.10
63013;DHT22;62113;45.624;11.700;2023-05-20T08:28:11;20.70;59.70
63013;DHT22;62113;45.624;11.700;2023-05-20T08:30:36;20.70;58.80
63013;DHT22;62113;45.624;11.700;2023-05-20T08:33:02;20.70;59.90
63013;DHT22;62113;45.624;11.700;2023-05-20T08:35:27;20.60;60.40
63013;DHT22;62113;45.624;11.700;2023-05-20T08:37:53;20.50;60.50
63013;DHT22;62113;45.624;11.700;2023-05-20T08:40:19;20.50;61.80
63013;DHT22;62113;45.624;11.700;2023-05-20T08:42:46;20.50;61.60
63013;DHT22;62113;45.624;11.700;2023-05-20T08:45:12;20.50;62.30
63013;DHT22;62113;45.624;11.700;2023-05-20T08:47:40;20.50;62.80
63013;DHT22;62113;45.624;11.700;2023-05-20T08:50:06;20.50;62.10
63013;DHT22;62113;45.624;11.700;2023-05-20T08:52:33;20.70;63.10
63013;DHT22;62113;45.624;11.700;2023-05-20T08:54:59;20.70;62.60
63013;DHT22;62113;45.624;11.700;2023-05-20T08:57:25;20.70;63.40
63013;DHT22;62113;45.624;11.700;2023-05-20T08:59:50;20.70;63.30
63013;DHT22;62113;45.624;11.700;2023-05-20T09:02:16;20.80;63.60
63013;DHT22;62113;45.624;11.700;2023-05-20T09:04:41;20.80;63.10
63013;DHT22;62113;45.624;11.700;2023-05-20T09:07:07;20.90;62.60
63013;DHT22;62113;45.624;11.700;2023-05-20T09:09:33;21.00;63.20
63013;DHT22;62113;45.624;11.700;2023-05-20T09:12:02;21.00;63.30
63013;DHT22;62113;45.624;11.700;2023-05-20T09:14:28;21.10;63.10
63013;DHT22;62113;45.624;11.700;2023-05-20T09:16:54;21.20;62.60
63013;DHT22;62113;45.624;11.700;2023-05-20T09:19:23;21.40;62.80
63013;DHT22;62113;45.624;11.700;2023-05-20T09:21:51;21.40;61.80
63013;DHT22;62113;45.624;11.700;2023-05-20T09:24:19;21.60;62.80
63013;DHT22;62113;45.624;11.700;2023-05-20T09:26:45;21.70;63.20
63013;DHT22;62113;45.624;11.700;2023-05-20T09:29:10;21.70;63.30
63013;DHT22;62113;45.624;11.700;2023-05-20T09:31:36;21.70;63.30
63013;DHT22;62113;45.624;11.700;2023-05-20T09:34:02;21.70;63.00
63013;DHT22;62113;45.624;11.700;2023-05-20T09:36:28;21.80;62.70
63013;DHT22;62113;45.624;11.700;2023-05-20T09:38:57;21.90;61.50
63013;DHT22;62113;45.624;11.700;2023-05-20T09:41:25;22.00;60.70
63013;DHT22;62113;45.624;11.700;2023-05-20T09:43:53;21.90;59.00
63013;DHT22;62113;45.624;11.700;2023-05-20T09:46:19;22.00;58.50
63013;DHT22;62113;45.624;11.700;2023-05-20T09:48:45;22.00;58.30
63013;DHT22;62113;45.624;11.700;2023-05-20T09:51:11;22.00;58.40
63013;DHT22;62113;45.624;11.700;2023-05-20T09:53:37;22.10;57.60
63013;DHT22;62113;45.624;11.700;2023-05-20T09:56:03;22.10;57.90
63013;DHT22;62113;45.624;11.700;2023-05-20T09:58:28;22.20;56.30
63013;DHT22;62113;45.624;11.700;2023-05-20T10:00:54;22.20;56.90
63013;DHT22;62113;45.624;11.700;2023-05-20T10:03:20;22.30;56.50
63013;DHT22;62113;45.624;11.700;2023-05-20T10:21:29;22.50;52.30
63013;DHT22;62113;45.624;11.700;2023-05-20T10:24:04;22.60;53.20
63013;DHT22;62113;45.624;11.700;2023-05-20T10:26:36;22.60;53.40
63013;DHT22;62113;45.624;11.700;2023-05-20T10:29:13;22.70;53.40
63013;DHT22;62113;45.624;11.700;2023-05-20T10:31:43;22.60;53.20
63013;DHT22;62113;45.624;11.700;2023-05-20T10:34:13;22.50;52.90
63013;DHT22;62113;45.624;11.700;2023-05-20T10:36:43;22.50;52.60
63013;DHT22;62113;45.624;11.700;2023-05-20T10:39:13;22.50;53.90
63013;DHT22;62113;45.624;11.700;2023-05-20T10:41:39;22.40;54.00
63013;DHT22;62113;45.624;11.700;2023-05-20T10:44:05;22.40;53.50
63013;DHT22;62113;45.624;11.700;2023-05-20T10:46:31;22.40;54.00
63013;DHT22;62113;45.624;11.700;2023-05-20T10:48:57;22.40;53.60
63013;DHT22;62113;45.624;11.700;2023-05-20T10:51:23;22.40;54.40
63013;DHT22;62113;45.624;11.700;2023-05-20T10:53:51;22.40;54.40
63013;DHT22;62113;45.624;11.700;2023-05-20T10:56:21;22.40;53.40
63013;DHT22;62113;45.624;11.700;2023-05-20T10:58:47;22.50;53.90
63013;DHT22;62113;45.624;11.700;2023-05-20T11:01:12;22.30;53.30
63013;DHT22;62113;45.624;11.700;2023-05-20T11:03:42;22.40;53.60
63013;DHT22;62113;45.624;11.700;2023-05-20T11:06:11;22.20;53.10
63013;DHT22;62113;45.624;11.700;2023-05-20T11:08:37;22.30;54.70
63013;DHT22;62113;45.624;11.700;2023-05-20T11:11:02;22.30;55.00
63013;DHT22;62113;45.624;11.700;2023-05-20T11:13:28;22.30;55.60
63013;DHT22;62113;45.624;11.700;2023-05-20T11:15:55;22.20;55.40
63013;DHT22;62113;45.624;11.700;2023-05-20T11:18:20;22.20;55.70
63013;DHT22;62113;45.624;11.700;2023-05-20T11:20:46;22.20;56.00
63013;DHT22;62113;45.624;11.700;2023-05-20T11:23:12;22.20;56.00
63013;DHT22;62113;45.624;11.700;2023-05-20T11:25:38;22.20;56.90
63013;DHT22;62113;45.624;11.700;2023-05-20T11:28:07;22.20;57.60
63013;DHT22;62113;45.624;11.700;2023-05-20T11:30:32;22.30;58.00
63013;DHT22;62113;45.624;11.700;2023-05-20T11:32:58;22.30;57.90
63013;DHT22;62113;45.624;11.700;2023-05-20T11:35:24;22.30;58.60
63013;DHT22;62113;45.624;11.700;2023-05-20T11:37:54;22.20;57.90
63013;DHT22;62113;45.624;11.700;2023-05-20T11:40:22;22.20;59.00
63013;DHT22;62113;45.624;11.700;2023-05-20T11:42:48;22.20;58.60
63013;DHT22;62113;45.624;11.700;2023-05-20T11:45:13;22.30;58.30
63013;DHT22;62113;45.624;11.700;2023-05-20T11:47:39;22.30;58.40
63013;DHT22;62113;45.624;11.700;2023-05-20T11:50:04;22.50;59.00
63013;DHT22;62113;45.624;11.700;2023-05-20T11:52:32;22.50;58.60
63013;DHT22;62113;45.624;11.700;2023-05-20T11:54:57;22.60;58.80
63013;DHT22;62113;45.624;11.700;2023-05-20T11:57:23;22.70;58.80
63013;DHT22;62113;45.624;11.700;2023-05-20T11:59:48;22.70;59.10
63013;DHT22;62113;45.624;11.700;2023-05-20T12:02:14;22.70;59.40
63013;DHT22;62113;45.624;11.700;2023-05-20T12:04:40;22.70;59.00
63013;DHT22;62113;45.624;11.700;2023-05-20T12:07:05;22.70;59.30
63013;DHT22;62113;45.624;11.700;2023-05-20T12:09:33;22.80;59.50
63013;DHT22;62113;45.624;11.700;2023-05-20T12:11:59;22.80;60.50
63013;DHT22;62113;45.624;11.700;2023-05-20T12:14:24;22.80;60.30
63013;DHT22;62113;45.624;11.700;2023-05-20T12:16:50;22.70;59.80
63013;DHT22;62113;45.624;11.700;2023-05-20T12:19:16;22.70;60.20
63013;DHT22;62113;45.624;11.700;2023-05-20T12:21:42;22.70;60.60
63013;DHT22;62113;45.624;11.700;2023-05-20T12:24:07;22.70;60.80
63013;DHT22;62113;45.624;11.700;2023-05-20T12:26:34;22.70;61.30
63013;DHT22;62113;45.624;11.700;2023-05-20T12:29:00;22.70;61.00
63013;DHT22;62113;45.624;11.700;2023-05-20T12:31:25;22.70;61.00
63013;DHT22;62113;45.624;11.700;2023-05-20T12:33:51;22.70;61.90
63013;DHT22;62113;45.624;11.700;2023-05-20T12:36:16;22.60;62.20
63013;DHT22;62113;45.624;11.700;2023-05-20T12:38:43;22.60;62.20
63013;DHT22;62113;45.624;11.700;2023-05-20T12:41:09;22.60;62.30
63013;DHT22;62113;45.624;11.700;2023-05-20T12:43:34;22.60;62.50
63013;DHT22;62113;45.624;11.700;2023-05-20T12:46:00;22.60;63.10
63013;DHT22;62113;45.624;11.700;2023-05-20T12:48:26;22.70;62.50
63013;DHT22;62113;45.624;11.700;2023-05-20T12:50:51;22.70;63.30
63013;DHT22;62113;45.624;11.700;2023-05-20T12:53:17;22.70;63.50
63013;DHT22;62113;45.624;11.700;2023-05-20T12:55:42;22.70;63.50
63013;DHT22;62113;45.624;11.700;2023-05-20T12:58:08;22.70;63.40
63013;DHT22;62113;45.624;11.700;2023-05-20T13:00:34;22.70;63.40
63013;DHT22;62113;45.624;11.700;2023-05-20T13:02:59;22.70;63.30
63013;DHT22;62113;45.624;11.700;2023-05-20T13:05:25;22.70;63.50
63013;DHT22;62113;45.624;11.700;2023-05-20T13:07:50;22.70;63.80
63013;DHT22;62113;45.624;11.700;2023-05-20T13:10:16;22.70;63.70
63013;DHT22;62113;45.624;11.700;2023-05-20T13:12:42;22.60;63.50
63013;DHT22;62113;45.624;11.700;2023-05-20T13:15:13;22.60;63.30
63013;DHT22;62113;45.624;11.700;2023-05-20T13:17:39;22.50;63.10
63013;DHT22;62113;45.624;11.700;2023-05-20T13:20:04;22.50;63.30
63013;DHT22;62113;45.624;11.700;2023-05-20T13:22:31;22.50;63.30
63013;DHT22;62113;45.624;11.700;2023-05-20T13:24:57;22.50;63.30
63013;DHT22;62113;45.624;11.700;2023-05-20T13:27:22;22.40;63.70
63013;DHT22;62113;45.624;11.700;2023-05-20T13:29:48;22.40;63.90
63013;DHT22;62113;45.624;11.700;2023-05-20T13:32:13;22.40;63.90
63013;DHT22;62113;45.624;11.700;2023-05-20T13:34:39;22.40;63.60
63013;DHT22;62113;45.624;11.700;2023-05-20T13:37:05;22.30;63.70
63013;DHT22;62113;45.624;11.700;2023-05-20T13:39:30;22.30;63.80
63013;DHT22;62113;45.624;11.700;2023-05-20T13:41:56;22.30;63.90
63013;DHT22;62113;45.624;11.700;2023-05-20T13:44:22;22.40;63.80
63013;DHT22;62113;45.624;11.700;2023-05-20T13:46:48;22.40;64.10
63013;DHT22;62113;45.624;11.700;2023-05-20T13:49:13;22.40;64.50
63013;DHT22;62113;45.624;11.700;2023-05-20T13:51:39;22.40;64.40
63013;DHT22;62113;45.624;11.700;2023-05-20T13:54:04;22.50;64.30
63013;DHT22;62113;45.624;11.700;2023-05-20T13:56:30;22.50;64.40
63013;DHT22;62113;45.624;11.700;2023-05-20T13:58:56;22.50;64.30
63013;DHT22;62113;45.624;11.700;2023-05-20T14:01:22;22.50;64.00
63013;DHT22;62113;45.624;11.700;2023-05-20T14:03:47;22.50;64.00
63013;DHT22;62113;45.624;11.700;2023-05-20T14:06:13;22.50;63.90
63013;DHT22;62113;45.624;11.700;2023-05-20T14:08:40;22.50;64.20
63013;DHT22;62113;45.624;11.700;2023-05-20T14:11:05;22.50;64.60
63013;DHT22;62113;45.624;11.700;2023-05-20T14:13:31;22.50;64.50
63013;DHT22;62113;45.624;11.700;2023-05-20T14:15:56;22.40;64.70
63013;DHT22;62113;45.624;11.700;2023-05-20T14:18:22;22.40;64.90
63013;DHT22;62113;45.624;11.700;2023-05-20T14:20:49;22.40;65.30
63013;DHT22;62113;45.624;11.700;2023-05-20T14:23:15;22.40;64.90
63013;DHT22;62113;45.624;11.700;2023-05-20T14:25:40;22.40;64.90
63013;DHT22;62113;45.624;11.700;2023-05-20T14:28:06;22.40;64.90
63013;DHT22;62113;45.624;11.700;2023-05-20T14:30:31;22.40;65.30
63013;DHT22;62113;45.624;11.700;2023-05-20T14:32:57;22.30;65.50
63013;DHT22;62113;45.624;11.700;2023-05-20T14:35:22;22.30;65.60
63013;DHT22;62113;45.624;11.700;2023-05-20T14:37:48;22.20;65.80
63013;DHT22;62113;45.624;11.700;2023-05-20T14:40:14;22.20;65.60
63013;DHT22;62113;45.624;11.700;2023-05-20T14:42:39;22.20;65.90
63013;DHT22;62113;45.624;11.700;2023-05-20T14:45:05;22.20;65.60
63013;DHT22;62113;45.624;11.700;2023-05-20T14:47:31;22.20;65.90
63013;DHT22;62113;45.624;11.700;2023-05-20T14:49:57;22.20;65.90
63013;DHT22;62113;45.624;11.700;2023-05-20T14:52:22;22.20;66.00
63013;DHT22;62113;45.624;11.700;2023-05-20T14:54:48;22.20;65.90
63013;DHT22;62113;45.624;11.700;2023-05-20T14:57:13;22.10;66.30
63013;DHT22;62113;45.624;11.700;2023-05-20T14:59:40;22.10;66.00
63013;DHT22;62113;45.624;11.700;2023-05-20T15:02:05;22.20;66.10
63013;DHT22;62113;45.624;11.700;2023-05-20T15:04:31;22.20;66.00
63013;DHT22;62113;45.624;11.700;2023-05-20T15:06:56;22.20;66.10
63013;DHT22;62113;45.624;11.700;2023-05-20T15:09:22;22.20;66.20
63013;DHT22;62113;45.624;11.700;2023-05-20T15:11:47;22.30;66.00
63013;DHT22;62113;45.624;11.700;2023-05-20T15:14:13;22.40;65.80
63013;DHT22;62113;45.624;11.700;2023-05-20T15:16:38;22.50;65.80
63013;DHT22;62113;45.624;11.700;2023-05-20T15:19:04;22.50;65.50
63013;DHT22;62113;45.624;11.700;2023-05-20T15:21:29;22.60;65.60
63013;DHT22;62113;45.624;11.700;2023-05-20T15:23:56;22.60;65.50